createdAt,value
2019-05-05T00:00:44.656Z,0.00
2019-05-05T00:01:44.914Z,0.00
2019-05-05T00:02:44.736Z,0.00
2019-05-05T00:03:44.527Z,0.00
2019-05-05T00:04:42.827Z,0.00
2019-05-05T00:05:44.421Z,0.00
2019-05-05T00:06:44.555Z,0.00
2019-05-05T00:07:44.752Z,0.00
2019-05-05T00:08:42.965Z,0.00
2019-05-05T00:09:44.925Z,0.00
2019-05-05T00:10:45.159Z,0.00
2019-05-05T00:11:44.442Z,0.00
2019-05-05T00:12:44.746Z,0.00
2019-05-05T00:13:44.683Z,0.00
2019-05-05T00:14:44.244Z,0.00
2019-05-05T00:15:44.900Z,0.00
2019-05-05T00:16:44.498Z,0.00
2019-05-05T00:17:44.867Z,0.00
2019-05-05T00:18:44.783Z,0.00
2019-05-05T00:19:42.915Z,0.00
2019-05-05T00:20:44.657Z,0.00
2019-05-05T00:21:44.602Z,0.00
2019-05-05T00:22:42.906Z,0.00
2019-05-05T00:23:44.984Z,0.00
2019-05-05T00:24:44.402Z,0.00
2019-05-05T00:25:44.750Z,0.00
2019-05-05T00:26:42.895Z,0.00
2019-05-05T00:27:45.136Z,0.00
2019-05-05T00:28:44.764Z,0.00
2019-05-05T00:29:45.143Z,0.00
2019-05-05T00:30:44.855Z,0.00
2019-05-05T00:31:45.261Z,0.00
2019-05-05T00:32:44.281Z,0.00
2019-05-05T00:33:44.826Z,0.00
2019-05-05T00:34:44.444Z,0.00
2019-05-05T00:35:45.001Z,0.00
2019-05-05T00:36:44.570Z,0.00
2019-05-05T00:37:44.943Z,0.00
2019-05-05T00:38:44.517Z,0.00
2019-05-05T00:39:45.007Z,0.00
2019-05-05T00:40:44.304Z,0.00
2019-05-05T00:41:44.918Z,0.00
2019-05-05T00:42:42.977Z,0.00
2019-05-05T00:43:44.965Z,0.00
2019-05-05T00:44:44.661Z,0.00
2019-05-05T00:45:45.008Z,0.00
2019-05-05T00:46:44.704Z,0.00
2019-05-05T00:47:44.942Z,0.00
2019-05-05T00:48:44.431Z,0.00
2019-05-05T00:49:46.351Z,0.00
2019-05-05T00:50:44.934Z,0.00
2019-05-05T00:51:44.360Z,0.00
2019-05-05T00:52:44.546Z,0.00
2019-05-05T00:53:44.921Z,0.00
2019-05-05T00:54:44.971Z,0.00
2019-05-05T00:55:44.285Z,0.00
2019-05-05T00:56:45.000Z,0.00
2019-05-05T00:57:45.153Z,0.00
2019-05-05T00:58:44.603Z,0.00
2019-05-05T00:59:45.078Z,0.00
2019-05-05T01:00:44.366Z,0.00
2019-05-05T01:01:44.818Z,0.00
2019-05-05T01:02:44.796Z,0.00
2019-05-05T01:03:44.200Z,0.00
2019-05-05T01:04:44.521Z,0.00
2019-05-05T01:05:44.826Z,0.00
2019-05-05T01:06:44.980Z,0.00
2019-05-05T01:07:44.424Z,0.00
2019-05-05T01:08:44.559Z,0.00
2019-05-05T01:09:44.986Z,0.00
2019-05-05T01:10:44.325Z,0.00
2019-05-05T01:11:44.609Z,0.00
2019-05-05T01:12:44.923Z,0.00
2019-05-05T01:13:45.345Z,0.00
2019-05-05T01:14:44.787Z,0.00
2019-05-05T01:15:44.865Z,0.00
2019-05-05T01:16:43.126Z,0.00
2019-05-05T01:17:45.028Z,0.00
2019-05-05T01:18:44.968Z,0.00
2019-05-05T01:19:45.395Z,0.00
2019-05-05T01:20:44.865Z,0.00
2019-05-05T01:21:45.274Z,0.00
2019-05-05T01:22:44.811Z,0.00
2019-05-05T01:23:45.349Z,0.00
2019-05-05T01:24:43.210Z,0.00
2019-05-05T01:25:45.194Z,0.00
2019-05-05T01:26:44.626Z,0.00
2019-05-05T01:27:45.150Z,0.00
2019-05-05T01:28:44.700Z,0.00
2019-05-05T01:29:45.067Z,0.00
2019-05-05T01:30:44.513Z,0.00
2019-05-05T01:31:45.054Z,0.00
2019-05-05T01:32:44.597Z,0.00
2019-05-05T01:33:44.878Z,0.00
2019-05-05T01:34:44.357Z,0.00
2019-05-05T01:35:44.770Z,0.00
2019-05-05T01:36:44.996Z,0.00
2019-05-05T01:37:44.289Z,0.00
2019-05-05T01:38:44.689Z,0.00
2019-05-05T01:39:45.118Z,0.00
2019-05-05T01:40:44.678Z,0.00
2019-05-05T01:41:45.193Z,0.00
2019-05-05T01:42:44.679Z,0.00
2019-05-05T01:43:45.058Z,0.00
2019-05-05T01:44:44.787Z,0.00
2019-05-05T01:45:45.219Z,0.00
2019-05-05T01:46:44.502Z,0.00
2019-05-05T01:47:45.136Z,0.00
2019-05-05T01:48:44.507Z,0.00
2019-05-05T01:49:45.189Z,0.00
2019-05-05T01:50:45.191Z,0.00
2019-05-05T01:51:44.722Z,0.00
2019-05-05T01:52:45.100Z,0.00
2019-05-05T01:53:44.283Z,0.00
2019-05-05T01:54:44.595Z,0.00
2019-05-05T01:55:45.067Z,0.00
2019-05-05T01:56:44.531Z,0.00
2019-05-05T01:57:45.041Z,0.00
2019-05-05T01:58:44.171Z,0.00
2019-05-05T01:59:44.800Z,0.00
2019-05-05T02:00:45.089Z,0.00
2019-05-05T02:01:44.528Z,0.00
2019-05-05T02:02:44.835Z,0.00
2019-05-05T02:03:44.283Z,0.00
2019-05-05T02:04:44.681Z,0.00
2019-05-05T02:05:45.130Z,0.00
2019-05-05T02:06:44.341Z,0.00
2019-05-05T02:07:44.819Z,0.00
2019-05-05T02:08:45.282Z,0.00
2019-05-05T02:09:44.806Z,0.00
2019-05-05T02:10:45.275Z,0.00
2019-05-05T02:11:45.221Z,0.00
2019-05-05T02:12:44.693Z,0.00
2019-05-05T02:13:45.061Z,0.00
2019-05-05T02:14:44.426Z,0.00
2019-05-05T02:15:44.583Z,0.00
2019-05-05T02:16:45.210Z,0.00
2019-05-05T02:17:44.575Z,0.00
2019-05-05T02:18:45.047Z,0.00
2019-05-05T02:19:44.348Z,0.00
2019-05-05T02:20:45.109Z,0.00
2019-05-05T02:21:45.275Z,0.00
2019-05-05T02:22:44.588Z,0.00
2019-05-05T02:23:45.178Z,0.00
2019-05-05T02:24:44.440Z,0.00
2019-05-05T02:25:44.765Z,0.00
2019-05-05T02:26:45.434Z,0.00
2019-05-05T02:27:44.698Z,0.00
2019-05-05T02:28:45.284Z,0.00
2019-05-05T02:29:44.686Z,0.00
2019-05-05T02:30:46.287Z,0.00
2019-05-05T02:31:45.409Z,0.00
2019-05-05T02:32:45.178Z,0.00
2019-05-05T02:33:46.006Z,0.00
2019-05-05T02:34:45.638Z,0.00
2019-05-05T02:35:45.844Z,0.00
2019-05-05T02:36:45.974Z,0.00
2019-05-05T02:37:45.693Z,0.00
2019-05-05T02:38:46.163Z,0.00
2019-05-05T02:39:50.497Z,0.00
2019-05-05T02:40:45.219Z,0.00
2019-05-05T02:41:45.246Z,0.00
2019-05-05T02:42:45.571Z,0.00
2019-05-05T02:43:44.970Z,0.00
2019-05-05T02:44:45.532Z,0.00
2019-05-05T02:45:44.117Z,0.00
2019-05-05T02:46:44.650Z,0.00
2019-05-05T02:47:45.068Z,0.00
2019-05-05T02:48:44.980Z,0.00
2019-05-05T02:49:45.388Z,0.00
2019-05-05T02:50:54.900Z,0.00
2019-05-05T02:51:44.713Z,0.00
2019-05-05T02:52:44.242Z,0.00
2019-05-05T02:53:44.551Z,0.00
2019-05-05T02:54:44.231Z,0.00
2019-05-05T02:55:44.224Z,0.00
2019-05-05T02:56:43.690Z,0.00
2019-05-05T02:57:43.952Z,0.00
2019-05-05T02:58:44.378Z,0.00
2019-05-05T02:59:43.551Z,0.00
2019-05-05T03:00:43.794Z,0.00
2019-05-05T03:01:44.623Z,0.00
2019-05-05T03:02:43.549Z,0.00
2019-05-05T03:03:43.858Z,0.00
2019-05-05T03:04:44.349Z,0.00
2019-05-05T03:05:43.552Z,0.00
2019-05-05T03:06:43.791Z,0.00
2019-05-05T03:07:43.818Z,0.00
2019-05-05T03:08:44.056Z,0.00
2019-05-05T03:09:44.000Z,0.00
2019-05-05T03:10:44.324Z,0.00
2019-05-05T03:11:43.707Z,0.00
2019-05-05T03:12:43.965Z,0.00
2019-05-05T03:13:44.228Z,0.00
2019-05-05T03:14:44.620Z,0.00
2019-05-05T03:15:44.148Z,5.63
2019-05-05T03:16:43.634Z,5.63
2019-05-05T03:17:44.490Z,5.63
2019-05-05T03:18:43.986Z,5.63
2019-05-05T03:19:44.453Z,5.63
2019-05-05T03:20:43.681Z,5.63
2019-05-05T03:21:44.165Z,5.63
2019-05-05T03:22:43.569Z,5.63
2019-05-05T03:23:44.014Z,11.25
2019-05-05T03:24:44.676Z,11.25
2019-05-05T03:25:44.029Z,11.25
2019-05-05T03:26:44.395Z,11.25
2019-05-05T03:27:44.544Z,11.25
2019-05-05T03:28:43.909Z,11.25
2019-05-05T03:29:44.167Z,16.88
2019-05-05T03:30:45.485Z,16.88
2019-05-05T03:31:45.790Z,16.88
2019-05-05T03:32:45.510Z,22.50
2019-05-05T03:33:45.935Z,22.50
2019-05-05T03:34:44.538Z,22.50
2019-05-05T03:35:43.671Z,22.50
2019-05-05T03:36:44.204Z,28.13
2019-05-05T03:37:44.626Z,28.13
2019-05-05T03:38:44.448Z,28.13
2019-05-05T03:39:44.455Z,33.75
2019-05-05T03:40:43.688Z,33.75
2019-05-05T03:41:43.861Z,33.75
2019-05-05T03:42:44.256Z,39.38
2019-05-05T03:43:43.624Z,39.38
2019-05-05T03:44:44.086Z,39.38
2019-05-05T03:45:44.476Z,45.00
2019-05-05T03:46:43.909Z,45.00
2019-05-05T03:47:44.143Z,45.00
2019-05-05T03:48:43.884Z,50.63
2019-05-05T03:49:44.223Z,50.63
2019-05-05T03:50:44.629Z,56.25
2019-05-05T03:51:43.936Z,61.88
2019-05-05T03:52:43.904Z,67.50
2019-05-05T03:53:44.064Z,73.13
2019-05-05T03:54:43.671Z,84.38
2019-05-05T03:55:44.040Z,90.00
2019-05-05T03:56:44.266Z,90.00
2019-05-05T03:57:44.487Z,95.63
2019-05-05T03:58:43.772Z,95.63
2019-05-05T03:59:44.284Z,106.88
2019-05-05T04:00:43.679Z,112.50
2019-05-05T04:01:44.038Z,112.50
2019-05-05T04:02:44.518Z,118.13
2019-05-05T04:03:43.723Z,123.75
2019-05-05T04:04:44.287Z,123.75
2019-05-05T04:05:44.452Z,129.38
2019-05-05T04:06:44.593Z,135.00
2019-05-05T04:07:44.122Z,140.63
2019-05-05T04:08:44.436Z,146.25
2019-05-05T04:09:43.874Z,151.88
2019-05-05T04:10:43.997Z,163.13
2019-05-05T04:11:44.392Z,163.13
2019-05-05T04:12:43.722Z,168.75
2019-05-05T04:13:43.827Z,174.38
2019-05-05T04:14:44.095Z,185.63
2019-05-05T04:15:44.203Z,191.25
2019-05-05T04:16:43.748Z,202.50
2019-05-05T04:17:44.401Z,208.13
2019-05-05T04:18:43.752Z,219.38
2019-05-05T04:19:43.764Z,225.00
2019-05-05T04:20:44.214Z,236.25
2019-05-05T04:21:44.896Z,247.50
2019-05-05T04:22:43.752Z,258.75
2019-05-05T04:23:44.271Z,275.63
2019-05-05T04:24:43.816Z,298.13
2019-05-05T04:25:44.033Z,298.13
2019-05-05T04:26:44.149Z,315.00
2019-05-05T04:27:44.491Z,326.25
2019-05-05T04:28:43.811Z,343.13
2019-05-05T04:29:44.094Z,354.38
2019-05-05T04:30:44.458Z,371.25
2019-05-05T04:31:43.794Z,388.13
2019-05-05T04:32:44.055Z,410.63
2019-05-05T04:33:44.476Z,438.75
2019-05-05T04:34:44.165Z,466.88
2019-05-05T04:35:44.468Z,511.88
2019-05-05T04:36:44.371Z,534.38
2019-05-05T04:37:43.903Z,568.13
2019-05-05T04:38:44.077Z,590.63
2019-05-05T04:39:44.473Z,618.75
2019-05-05T04:40:43.863Z,646.88
2019-05-05T04:41:44.110Z,675.00
2019-05-05T04:42:44.175Z,708.75
2019-05-05T04:43:44.299Z,742.50
2019-05-05T04:44:44.855Z,759.38
2019-05-05T04:45:43.860Z,787.50
2019-05-05T04:46:44.343Z,810.00
2019-05-05T04:47:43.859Z,821.25
2019-05-05T04:48:43.977Z,832.50
2019-05-05T04:49:44.517Z,843.75
2019-05-05T04:50:44.172Z,855.00
2019-05-05T04:51:49.424Z,866.25
2019-05-05T04:52:43.891Z,877.50
2019-05-05T04:53:43.908Z,888.75
2019-05-05T04:54:44.006Z,900.00
2019-05-05T04:55:44.313Z,916.88
2019-05-05T04:56:44.785Z,928.13
2019-05-05T04:57:43.911Z,939.38
2019-05-05T04:58:44.080Z,950.63
2019-05-05T04:59:44.445Z,956.25
2019-05-05T05:00:44.230Z,961.88
2019-05-05T05:01:44.066Z,978.75
2019-05-05T05:02:43.954Z,990.00
2019-05-05T05:03:43.974Z,1006.88
2019-05-05T05:04:44.132Z,1023.75
2019-05-05T05:05:44.265Z,1029.38
2019-05-05T05:06:43.994Z,1040.63
2019-05-05T05:07:44.029Z,1051.88
2019-05-05T05:08:44.399Z,1063.13
2019-05-05T05:09:44.012Z,1068.75
2019-05-05T05:10:44.071Z,1080.00
2019-05-05T05:11:44.377Z,1091.25
2019-05-05T05:12:44.050Z,1102.50
2019-05-05T05:13:44.169Z,1108.13
2019-05-05T05:14:44.192Z,1119.38
2019-05-05T05:15:44.625Z,1130.63
2019-05-05T05:16:44.055Z,1136.25
2019-05-05T05:17:44.381Z,1147.50
2019-05-05T05:18:44.634Z,1153.13
2019-05-05T05:19:44.098Z,1170.00
2019-05-05T05:20:44.416Z,1170.00
2019-05-05T05:21:51.966Z,1175.63
2019-05-05T05:22:44.148Z,1192.50
2019-05-05T05:23:44.547Z,1198.13
2019-05-05T05:24:44.675Z,1203.75
2019-05-05T05:25:44.131Z,1209.38
2019-05-05T05:26:44.321Z,1220.63
2019-05-05T05:27:44.435Z,1220.63
2019-05-05T05:28:44.755Z,1220.63
2019-05-05T05:29:44.153Z,1226.25
2019-05-05T05:30:44.203Z,1231.88
2019-05-05T05:31:44.346Z,1243.13
2019-05-05T05:32:44.680Z,1248.75
2019-05-05T05:33:44.226Z,1254.38
2019-05-05T05:34:44.334Z,1260.00
2019-05-05T05:35:44.270Z,1271.25
2019-05-05T05:36:44.370Z,1265.63
2019-05-05T05:37:44.886Z,1271.25
2019-05-05T05:38:44.323Z,1265.63
2019-05-05T05:39:44.254Z,1276.88
2019-05-05T05:40:44.488Z,1276.88
2019-05-05T05:41:44.291Z,1276.88
2019-05-05T05:42:44.294Z,1276.88
2019-05-05T05:43:44.289Z,1293.75
2019-05-05T05:44:44.555Z,1276.88
2019-05-05T05:45:44.322Z,1276.88
2019-05-05T05:46:44.336Z,1276.88
2019-05-05T05:47:44.399Z,1276.88
2019-05-05T05:48:44.374Z,1282.50
2019-05-05T05:49:44.405Z,1271.25
2019-05-05T05:50:44.438Z,1271.25
2019-05-05T05:51:44.781Z,1271.25
2019-05-05T05:52:44.392Z,1271.25
2019-05-05T05:53:44.415Z,1276.88
2019-05-05T05:54:44.442Z,1276.88
2019-05-05T05:55:44.877Z,1282.50
2019-05-05T05:56:44.752Z,1271.25
2019-05-05T05:57:44.488Z,1271.25
2019-05-05T05:58:44.450Z,1271.25
2019-05-05T05:59:44.565Z,1276.88
2019-05-05T06:00:44.513Z,1276.88
2019-05-05T06:01:44.511Z,1271.25
2019-05-05T06:02:44.613Z,1265.63
2019-05-05T06:03:44.545Z,1265.63
2019-05-05T06:04:44.737Z,1271.25
2019-05-05T06:05:44.554Z,1265.63
2019-05-05T06:06:44.603Z,1254.38
2019-05-05T06:07:44.542Z,1254.38
2019-05-05T06:08:44.583Z,1254.38
2019-05-05T06:09:44.931Z,1248.75
2019-05-05T06:10:44.594Z,1243.13
2019-05-05T06:11:44.627Z,1231.88
2019-05-05T06:12:45.068Z,1215.00
2019-05-05T06:13:47.467Z,1203.75
2019-05-05T06:14:44.840Z,1198.13
2019-05-05T06:15:44.678Z,1192.50
2019-05-05T06:16:44.887Z,1181.25
2019-05-05T06:17:45.039Z,1175.63
2019-05-05T06:18:44.746Z,1170.00
2019-05-05T06:19:44.758Z,1158.75
2019-05-05T06:20:44.747Z,1147.50
2019-05-05T06:21:44.760Z,1136.25
2019-05-05T06:22:44.801Z,1130.63
2019-05-05T06:23:44.756Z,1119.38
2019-05-05T06:24:44.737Z,1108.13
2019-05-05T06:25:44.969Z,1091.25
2019-05-05T06:26:45.763Z,1074.38
2019-05-05T06:27:45.990Z,1063.13
2019-05-05T06:28:48.223Z,1046.25
2019-05-05T06:29:45.547Z,1018.13
2019-05-05T06:30:45.305Z,990.00
2019-05-05T06:31:44.919Z,961.88
2019-05-05T06:32:45.800Z,922.50
2019-05-05T06:33:44.851Z,894.38
2019-05-05T06:34:44.894Z,855.00
2019-05-05T06:35:44.873Z,826.88
2019-05-05T06:36:44.885Z,781.88
2019-05-05T06:37:46.685Z,736.88
2019-05-05T06:38:44.943Z,680.63
2019-05-05T06:39:44.963Z,630.00
2019-05-05T06:40:44.948Z,596.25
2019-05-05T06:41:44.953Z,556.88
2019-05-05T06:42:44.962Z,489.38
2019-05-05T06:43:45.015Z,388.13
2019-05-05T06:44:45.020Z,298.13
2019-05-05T06:45:44.995Z,264.38
2019-05-05T06:46:45.021Z,253.13
2019-05-05T06:47:45.168Z,247.50
2019-05-05T06:48:45.036Z,247.50
2019-05-05T06:49:45.064Z,253.13
2019-05-05T06:50:45.062Z,253.13
2019-05-05T06:51:45.063Z,247.50
2019-05-05T06:52:47.116Z,241.88
2019-05-05T06:53:45.076Z,241.88
2019-05-05T06:54:45.124Z,241.88
2019-05-05T06:55:45.101Z,241.88
2019-05-05T06:56:45.114Z,241.88
2019-05-05T06:57:45.120Z,241.88
2019-05-05T06:58:45.128Z,241.88
2019-05-05T06:59:45.175Z,241.88
2019-05-05T07:00:45.272Z,241.88
2019-05-05T07:01:45.158Z,241.88
2019-05-05T07:02:45.213Z,241.88
2019-05-05T07:03:45.177Z,236.25
2019-05-05T07:04:45.229Z,236.25
2019-05-05T07:05:45.227Z,236.25
2019-05-05T07:06:53.536Z,236.25
2019-05-05T07:07:45.278Z,236.25
2019-05-05T07:08:45.547Z,236.25
2019-05-05T07:09:45.293Z,236.25
2019-05-05T07:10:45.294Z,236.25
2019-05-05T07:11:45.292Z,230.63
2019-05-05T07:12:45.267Z,230.63
2019-05-05T07:13:45.308Z,230.63
2019-05-05T07:14:45.278Z,236.25
2019-05-05T07:15:45.283Z,236.25
2019-05-05T07:16:45.331Z,236.25
2019-05-05T07:17:45.332Z,236.25
2019-05-05T07:18:45.306Z,236.25
2019-05-05T07:19:45.321Z,236.25
2019-05-05T07:20:45.367Z,236.25
2019-05-05T07:21:45.330Z,230.63
2019-05-05T07:22:58.474Z,230.63
2019-05-05T07:23:45.365Z,230.63
2019-05-05T07:24:45.339Z,230.63
2019-05-05T07:25:46.117Z,230.63
2019-05-05T07:26:45.626Z,230.63
2019-05-05T07:27:45.373Z,230.63
2019-05-05T07:28:45.383Z,230.63
2019-05-05T07:29:45.382Z,225.00
2019-05-05T07:30:45.391Z,230.63
2019-05-05T07:31:45.451Z,241.88
2019-05-05T07:32:45.434Z,236.25
2019-05-05T07:33:45.417Z,230.63
2019-05-05T07:34:45.424Z,230.63
2019-05-05T07:35:55.381Z,230.63
2019-05-05T07:36:45.484Z,230.63
2019-05-05T07:37:46.362Z,236.25
2019-05-05T07:38:45.447Z,241.88
2019-05-05T07:39:45.459Z,241.88
2019-05-05T07:40:45.497Z,230.63
2019-05-05T07:41:45.460Z,230.63
2019-05-05T07:42:45.497Z,236.25
2019-05-05T07:43:45.583Z,236.25
2019-05-05T07:44:45.619Z,247.50
2019-05-05T07:45:45.489Z,264.38
2019-05-05T07:46:45.502Z,292.50
2019-05-05T07:47:47.380Z,286.88
2019-05-05T07:48:45.699Z,241.88
2019-05-05T07:49:45.510Z,236.25
2019-05-05T07:50:58.677Z,230.63
2019-05-05T07:51:45.572Z,247.50
2019-05-05T07:52:45.541Z,247.50
2019-05-05T07:53:45.583Z,230.63
2019-05-05T07:54:45.702Z,236.25
2019-05-05T07:55:45.544Z,241.88
2019-05-05T07:56:45.843Z,241.88
2019-05-05T07:57:45.578Z,230.63
2019-05-05T07:58:45.568Z,230.63
2019-05-05T07:59:45.595Z,230.63
2019-05-05T08:00:45.622Z,230.63
2019-05-05T08:01:46.721Z,236.25
2019-05-05T08:02:45.601Z,236.25
2019-05-05T08:03:45.616Z,241.88
2019-05-05T08:04:45.630Z,241.88
2019-05-05T08:05:45.666Z,247.50
2019-05-05T08:06:45.845Z,253.13
2019-05-05T08:07:45.838Z,253.13
2019-05-05T08:08:45.688Z,247.50
2019-05-05T08:09:45.717Z,247.50
2019-05-05T08:10:45.674Z,247.50
2019-05-05T08:11:45.722Z,241.88
2019-05-05T08:12:45.774Z,236.25
2019-05-05T08:13:45.759Z,236.25
2019-05-05T08:14:45.758Z,241.88
2019-05-05T08:15:56.267Z,253.13
2019-05-05T08:16:45.887Z,264.38
2019-05-05T08:17:45.715Z,281.25
2019-05-05T08:18:45.685Z,281.25
2019-05-05T08:19:45.751Z,286.88
2019-05-05T08:20:45.744Z,303.75
2019-05-05T08:21:45.854Z,309.38
2019-05-05T08:22:45.812Z,320.63
2019-05-05T08:23:45.812Z,326.25
2019-05-05T08:24:45.737Z,331.88
2019-05-05T08:25:45.744Z,331.88
2019-05-05T08:26:45.838Z,337.50
2019-05-05T08:27:45.728Z,360.00
2019-05-05T08:28:45.786Z,382.50
2019-05-05T08:29:45.761Z,399.38
2019-05-05T08:30:45.787Z,416.25
2019-05-05T08:31:45.752Z,433.13
2019-05-05T08:32:45.790Z,455.63
2019-05-05T08:33:45.806Z,461.25
2019-05-05T08:34:56.891Z,461.25
2019-05-05T08:35:45.890Z,466.88
2019-05-05T08:36:45.875Z,455.63
2019-05-05T08:37:45.802Z,466.88
2019-05-05T08:38:45.810Z,455.63
2019-05-05T08:39:45.812Z,461.25
2019-05-05T08:40:45.839Z,455.63
2019-05-05T08:41:47.440Z,433.13
2019-05-05T08:42:45.877Z,433.13
2019-05-05T08:43:46.887Z,455.63
2019-05-05T08:44:45.846Z,489.38
2019-05-05T08:45:45.847Z,517.50
2019-05-05T08:46:46.008Z,551.25
2019-05-05T08:47:45.971Z,545.63
2019-05-05T08:48:45.872Z,500.63
2019-05-05T08:49:45.919Z,506.25
2019-05-05T08:50:45.988Z,534.38
2019-05-05T08:51:45.894Z,556.88
2019-05-05T08:52:45.978Z,528.75
2019-05-05T08:53:48.393Z,483.75
2019-05-05T08:54:46.212Z,444.38
2019-05-05T08:55:46.155Z,416.25
2019-05-05T08:56:45.936Z,410.63
2019-05-05T08:57:45.940Z,405.00
2019-05-05T08:58:46.000Z,405.00
2019-05-05T08:59:45.972Z,410.63
2019-05-05T09:00:46.105Z,416.25
2019-05-05T09:01:45.970Z,421.88
2019-05-05T09:02:45.963Z,438.75
2019-05-05T09:03:45.988Z,450.00
2019-05-05T09:04:46.043Z,461.25
2019-05-05T09:05:46.031Z,472.50
2019-05-05T09:06:46.028Z,455.63
2019-05-05T09:07:46.039Z,444.38
2019-05-05T09:08:46.068Z,444.38
2019-05-05T09:09:46.061Z,433.13
2019-05-05T09:10:46.070Z,427.50
2019-05-05T09:11:46.032Z,410.63
2019-05-05T09:12:46.061Z,399.38
2019-05-05T09:13:46.076Z,393.75
2019-05-05T09:14:46.128Z,393.75
2019-05-05T09:15:46.126Z,393.75
2019-05-05T09:16:46.277Z,388.13
2019-05-05T09:17:46.380Z,371.25
2019-05-05T09:18:46.109Z,371.25
2019-05-05T09:19:46.115Z,388.13
2019-05-05T09:20:46.157Z,416.25
2019-05-05T09:21:46.114Z,444.38
2019-05-05T09:22:46.120Z,466.88
2019-05-05T09:23:59.118Z,444.38
2019-05-05T09:24:46.195Z,410.63
2019-05-05T09:25:46.180Z,416.25
2019-05-05T09:26:46.206Z,410.63
2019-05-05T09:27:46.279Z,410.63
2019-05-05T09:28:46.184Z,399.38
2019-05-05T09:29:46.211Z,410.63
2019-05-05T09:30:46.270Z,433.13
2019-05-05T09:31:46.189Z,466.88
2019-05-05T09:32:46.322Z,478.13
2019-05-05T09:33:46.364Z,489.38
2019-05-05T09:34:46.213Z,495.00
2019-05-05T09:35:46.261Z,495.00
2019-05-05T09:36:46.212Z,466.88
2019-05-05T09:37:46.243Z,438.75
2019-05-05T09:38:46.229Z,421.88
2019-05-05T09:39:46.352Z,410.63
2019-05-05T09:40:46.307Z,399.38
2019-05-05T09:41:46.325Z,376.88
2019-05-05T09:42:46.297Z,365.63
2019-05-05T09:43:46.417Z,360.00
2019-05-05T09:44:46.371Z,354.38
2019-05-05T09:45:46.326Z,348.75
2019-05-05T09:46:46.281Z,354.38
2019-05-05T09:47:46.297Z,360.00
2019-05-05T09:48:46.357Z,371.25
2019-05-05T09:49:46.271Z,388.13
2019-05-05T09:50:46.673Z,410.63
2019-05-05T09:51:46.544Z,427.50
2019-05-05T09:52:46.614Z,444.38
2019-05-05T09:53:46.609Z,478.13
2019-05-05T09:54:46.570Z,506.25
2019-05-05T09:55:46.529Z,534.38
2019-05-05T09:56:46.399Z,534.38
2019-05-05T09:57:46.588Z,534.38
2019-05-05T09:58:46.426Z,523.13
2019-05-05T09:59:46.398Z,511.88
2019-05-05T10:00:46.652Z,523.13
2019-05-05T10:01:46.568Z,528.75
2019-05-05T10:02:46.445Z,523.13
2019-05-05T10:03:46.592Z,511.88
2019-05-05T10:04:46.995Z,489.38
2019-05-05T10:05:46.643Z,466.88
2019-05-05T10:06:47.938Z,444.38
2019-05-05T10:07:46.603Z,421.88
2019-05-05T10:08:46.842Z,405.00
2019-05-05T10:09:46.887Z,393.75
2019-05-05T10:10:46.470Z,393.75
2019-05-05T10:11:46.727Z,393.75
2019-05-05T10:12:46.981Z,388.13
2019-05-05T10:13:46.732Z,388.13
2019-05-05T10:14:46.512Z,399.38
2019-05-05T10:15:46.709Z,410.63
2019-05-05T10:16:46.519Z,433.13
2019-05-05T10:17:46.511Z,461.25
2019-05-05T10:18:46.476Z,478.13
2019-05-05T10:19:46.489Z,506.25
2019-05-05T10:20:46.504Z,545.63
2019-05-05T10:21:46.507Z,568.13
2019-05-05T10:22:46.531Z,556.88
2019-05-05T10:23:46.525Z,562.50
2019-05-05T10:24:46.542Z,545.63
2019-05-05T10:25:46.551Z,540.00
2019-05-05T10:26:46.527Z,506.25
2019-05-05T10:27:47.780Z,472.50
2019-05-05T10:28:46.544Z,444.38
2019-05-05T10:29:46.564Z,438.75
2019-05-05T10:30:46.578Z,438.75
2019-05-05T10:31:46.580Z,444.38
2019-05-05T10:32:46.625Z,461.25
2019-05-05T10:33:46.587Z,483.75
2019-05-05T10:34:46.596Z,517.50
2019-05-05T10:35:46.597Z,556.88
2019-05-05T10:36:46.611Z,601.88
2019-05-05T10:37:46.653Z,630.00
2019-05-05T10:38:46.755Z,618.75
2019-05-05T10:39:46.629Z,601.88
2019-05-05T10:40:48.334Z,585.00
2019-05-05T10:41:46.904Z,579.38
2019-05-05T10:42:46.649Z,573.75
2019-05-05T10:43:46.694Z,573.75
2019-05-05T10:44:46.678Z,573.75
2019-05-05T10:45:46.703Z,568.13
2019-05-05T10:46:46.689Z,551.25
2019-05-05T10:47:46.717Z,523.13
2019-05-05T10:48:46.736Z,483.75
2019-05-05T10:49:46.736Z,444.38
2019-05-05T10:50:46.712Z,416.25
2019-05-05T10:51:46.746Z,388.13
2019-05-05T10:52:46.735Z,365.63
2019-05-05T10:53:46.794Z,337.50
2019-05-05T10:54:46.751Z,320.63
2019-05-05T10:55:46.764Z,298.13
2019-05-05T10:56:46.803Z,286.88
2019-05-05T10:57:46.777Z,286.88
2019-05-05T10:58:46.805Z,292.50
2019-05-05T10:59:46.780Z,303.75
2019-05-05T11:00:46.790Z,315.00
2019-05-05T11:01:46.792Z,331.88
2019-05-05T11:02:46.867Z,354.38
2019-05-05T11:03:46.831Z,371.25
2019-05-05T11:04:48.620Z,382.50
2019-05-05T11:05:46.941Z,399.38
2019-05-05T11:06:46.897Z,421.88
2019-05-05T11:07:46.869Z,450.00
2019-05-05T11:08:46.893Z,478.13
2019-05-05T11:09:46.866Z,483.75
2019-05-05T11:10:46.869Z,495.00
2019-05-05T11:11:46.937Z,511.88
2019-05-05T11:12:46.873Z,528.75
2019-05-05T11:13:47.013Z,528.75
2019-05-05T11:14:46.893Z,517.50
2019-05-05T11:15:46.922Z,517.50
2019-05-05T11:16:46.958Z,534.38
2019-05-05T11:17:46.923Z,551.25
2019-05-05T11:18:46.920Z,556.88
2019-05-05T11:19:47.222Z,568.13
2019-05-05T11:20:46.939Z,579.38
2019-05-05T11:21:46.960Z,585.00
2019-05-05T11:22:46.944Z,596.25
2019-05-05T11:23:46.989Z,601.88
2019-05-05T11:24:57.401Z,613.13
2019-05-05T11:25:46.963Z,630.00
2019-05-05T11:26:46.994Z,641.25
2019-05-05T11:27:46.991Z,646.88
2019-05-05T11:28:47.015Z,641.25
2019-05-05T11:29:47.043Z,635.63
2019-05-05T11:30:47.016Z,630.00
2019-05-05T11:31:47.032Z,624.38
2019-05-05T11:32:47.069Z,624.38
2019-05-05T11:33:47.039Z,630.00
2019-05-05T11:34:47.072Z,618.75
2019-05-05T11:35:47.739Z,613.13
2019-05-05T11:36:47.344Z,601.88
2019-05-05T11:37:47.096Z,573.75
2019-05-05T11:38:47.064Z,534.38
2019-05-05T11:39:47.077Z,500.63
2019-05-05T11:40:47.138Z,478.13
2019-05-05T11:41:47.458Z,461.25
2019-05-05T11:42:47.403Z,455.63
2019-05-05T11:43:47.150Z,461.25
2019-05-05T11:44:47.593Z,472.50
2019-05-05T11:45:47.162Z,483.75
2019-05-05T11:46:47.147Z,495.00
2019-05-05T11:47:47.144Z,500.63
2019-05-05T11:48:47.180Z,506.25
2019-05-05T11:49:47.188Z,478.13
2019-05-05T11:50:47.177Z,455.63
2019-05-05T11:51:47.175Z,427.50
2019-05-05T11:52:47.177Z,416.25
2019-05-05T11:53:47.276Z,393.75
2019-05-05T11:54:47.187Z,388.13
2019-05-05T11:55:47.219Z,348.75
2019-05-05T11:56:47.203Z,331.88
2019-05-05T11:57:47.218Z,326.25
2019-05-05T11:58:47.288Z,320.63
2019-05-05T11:59:47.257Z,320.63
2019-05-05T12:00:47.279Z,320.63
2019-05-05T12:01:47.252Z,309.38
2019-05-05T12:02:47.277Z,315.00
2019-05-05T12:03:47.297Z,320.63
2019-05-05T12:04:47.289Z,326.25
2019-05-05T12:05:47.306Z,331.88
2019-05-05T12:06:47.289Z,343.13
2019-05-05T12:07:47.284Z,348.75
2019-05-05T12:08:47.340Z,354.38
2019-05-05T12:09:47.311Z,371.25
2019-05-05T12:10:47.387Z,388.13
2019-05-05T12:11:47.329Z,388.13
2019-05-05T12:12:47.367Z,405.00
2019-05-05T12:13:47.339Z,433.13
2019-05-05T12:14:47.342Z,461.25
2019-05-05T12:15:47.400Z,478.13
2019-05-05T12:16:47.594Z,489.38
2019-05-05T12:17:47.373Z,483.75
2019-05-05T12:18:47.394Z,495.00
2019-05-05T12:19:48.617Z,511.88
2019-05-05T12:20:47.432Z,545.63
2019-05-05T12:21:47.410Z,556.88
2019-05-05T12:22:47.428Z,568.13
2019-05-05T12:23:47.420Z,562.50
2019-05-05T12:24:47.440Z,568.13
2019-05-05T12:25:47.434Z,556.88
2019-05-05T12:26:47.470Z,556.88
2019-05-05T12:27:47.534Z,540.00
2019-05-05T12:28:47.440Z,540.00
2019-05-05T12:29:47.481Z,528.75
2019-05-05T12:30:47.449Z,523.13
2019-05-05T12:31:47.498Z,523.13
2019-05-05T12:32:47.463Z,523.13
2019-05-05T12:33:47.582Z,528.75
2019-05-05T12:34:47.507Z,523.13
2019-05-05T12:35:47.489Z,517.50
2019-05-05T12:36:47.628Z,511.88
2019-05-05T12:37:47.555Z,506.25
2019-05-05T12:38:47.569Z,506.25
2019-05-05T12:39:47.625Z,506.25